Time;durP1;ratioP1;P1;durP2;ratioP2;P2;SDS_P1;SDS_P2;PMS_P1;PMS_P2;Temp;Humidity;BMP_temperature;BMP_pressure;BME280_temperature;BME280_humidity;BME280_pressure;Samples;Min_cycle;Max_cycle;Signal;HPM_P1;HPM_P2
2021/12/10 00:00:42;;;;;;;1.20;1.10;;;19.60;38.70;;;;;;5004331;28;20477;-58
2021/12/10 00:03:12;;;;;;;1.33;1.23;;;19.60;38.70;;;;;;5002235;28;20477;-58
2021/12/10 00:05:44;;;;;;;1.10;1.00;;;19.60;38.80;;;;;;4998813;28;20450;-58
2021/12/10 00:08:11;;;;;;;1.30;1.20;;;19.60;38.70;;;;;;5003698;28;20463;-58
2021/12/10 00:10:48;;;;;;;1.13;1.03;;;19.60;38.80;;;;;;5000568;28;20512;-58
2021/12/10 00:13:15;;;;;;;1.00;1.00;;;19.60;38.70;;;;;;4999436;28;20967;-58
2021/12/10 00:15:41;;;;;;;1.00;0.97;;;19.60;38.70;;;;;;4999041;28;20448;-58
2021/12/10 00:18:10;;;;;;;1.20;1.10;;;19.60;38.70;;;;;;5004568;28;20437;-58
2021/12/10 00:20:38;;;;;;;1.10;1.00;;;19.60;39.50;;;;;;5000277;28;20424;-58
2021/12/10 00:23:08;;;;;;;2.23;1.00;;;19.60;38.70;;;;;;5003456;28;20431;-58
2021/12/10 00:25:39;;;;;;;1.33;1.23;;;19.60;38.70;;;;;;5004892;28;20771;-58
2021/12/10 00:28:16;;;;;;;1.10;1.00;;;19.60;38.70;;;;;;5003184;28;20431;-58
2021/12/10 00:31:14;;;;;;;1.20;1.10;;;19.60;38.70;;;;;;5001321;28;20452;-58
2021/12/10 00:33:45;;;;;;;1.00;1.00;;;19.60;38.60;;;;;;4999835;28;20415;-58
2021/12/10 00:36:12;;;;;;;0.80;0.80;;;19.60;38.60;;;;;;5001265;28;20488;-58
2021/12/10 00:38:38;;;;;;;1.00;0.90;;;19.60;38.60;;;;;;5002134;28;20439;-58
2021/12/10 00:41:05;;;;;;;1.03;0.93;;;19.60;38.50;;;;;;5002169;28;20835;-58
2021/12/10 00:43:31;;;;;;;1.10;1.00;;;19.60;38.50;;;;;;5003975;28;20465;-58
2021/12/10 00:45:57;;;;;;;1.13;1.03;;;19.60;38.50;;;;;;5000684;28;20866;-58
2021/12/10 00:48:22;;;;;;;1.30;1.10;;;19.60;38.50;;;;;;5002245;28;20224;-58
2021/12/10 00:50:52;;;;;;;0.90;0.90;;;19.60;38.40;;;;;;5001855;28;20562;-58
2021/12/10 00:53:17;;;;;;;0.87;0.87;;;19.60;38.40;;;;;;5001688;28;20274;-59
2021/12/10 00:55:44;;;;;;;1.00;0.90;;;19.60;38.30;;;;;;5002309;28;20933;-58
2021/12/10 00:58:11;;;;;;;1.10;1.00;;;19.60;38.50;;;;;;4999496;28;20224;-58
2021/12/10 01:00:47;;;;;;;1.20;1.10;;;19.60;38.30;;;;;;4998045;28;20454;-58
2021/12/10 01:03:15;;;;;;;0.80;0.80;;;19.60;38.40;;;;;;5002336;28;20447;-58
2021/12/10 01:05:46;;;;;;;1.33;1.23;;;19.60;38.30;;;;;;5004799;28;20423;-58
2021/12/10 01:08:12;;;;;;;1.03;0.93;;;19.60;38.30;;;;;;4998495;28;20845;-58
2021/12/10 01:10:44;;;;;;;1.10;1.00;;;19.60;38.30;;;;;;5002716;28;20479;-58
2021/12/10 01:13:15;;;;;;;1.10;1.00;;;19.60;38.30;;;;;;5003163;28;20227;-58
2021/12/10 01:24:33;;;;;;;1.00;0.90;;;19.60;38.30;;;;;;5004936;28;20532;-58
2021/12/10 01:27:09;;;;;;;1.37;1.00;;;19.60;38.20;;;;;;5001997;28;20427;-58
2021/12/10 01:29:44;;;;;;;0.80;0.80;;;19.60;38.30;;;;;;5000043;28;20481;-58
2021/12/10 01:32:13;;;;;;;2.90;0.83;;;19.60;38.20;;;;;;5000104;28;20436;-59
2021/12/10 01:34:40;;;;;;;1.03;0.90;;;19.60;38.20;;;;;;4997994;28;20424;-59
2021/12/10 01:37:06;;;;;;;1.00;0.90;;;19.60;38.30;;;;;;5000265;28;20821;-59
2021/12/10 01:39:35;;;;;;;0.97;0.80;;;19.60;38.30;;;;;;5000560;28;20450;-59
2021/12/10 01:42:14;;;;;;;1.83;0.87;;;19.60;38.30;;;;;;4998957;28;20236;-59
2021/12/10 01:44:44;;;;;;;1.00;0.90;;;19.60;38.30;;;;;;4999755;28;20442;-59
2021/12/10 01:47:12;;;;;;;0.80;0.80;;;19.60;38.20;;;;;;5000950;28;20432;-58
2021/12/10 01:49:39;;;;;;;1.43;0.90;;;19.60;38.20;;;;;;4998722;28;20907;-58
2021/12/10 01:52:05;;;;;;;4.43;1.13;;;19.60;38.20;;;;;;4999065;28;20454;-58
2021/12/10 01:54:36;;;;;;;1.10;1.00;;;19.60;38.20;;;;;;5000959;28;20465;-58
2021/12/10 01:57:03;;;;;;;1.20;1.00;;;19.60;38.20;;;;;;4997770;28;20917;-58
2021/12/10 01:59:31;;;;;;;1.20;1.10;;;19.60;38.20;;;;;;5000013;28;20421;-58
2021/12/10 02:02:04;;;;;;;1.27;1.13;;;19.60;38.10;;;;;;5001669;28;20797;-58
2021/12/10 02:04:34;;;;;;;1.00;0.90;;;19.60;38.20;;;;;;4998396;28;20972;-58
2021/12/10 02:07:00;;;;;;;1.17;1.07;;;19.60;38.20;;;;;;5001784;28;20440;-58
2021/12/10 02:09:26;;;;;;;1.10;1.00;;;19.60;38.20;;;;;;4999443;28;20773;-58
2021/12/10 02:11:51;;;;;;;0.80;0.80;;;19.60;38.10;;;;;;5002776;28;20428;-58
2021/12/10 02:14:18;;;;;;;1.03;0.93;;;19.70;38.30;;;;;;5000786;28;20219;-58
2021/12/10 02:16:44;;;;;;;1.10;1.00;;;19.60;38.20;;;;;;4999862;28;20221;-58
2021/12/10 02:19:12;;;;;;;1.10;1.00;;;19.60;38.20;;;;;;4999170;28;20465;-58
2021/12/10 02:21:39;;;;;;;0.80;0.80;;;19.60;38.20;;;;;;5002482;28;21003;-58
2021/12/10 02:24:07;;;;;;;0.90;0.90;;;19.60;38.20;;;;;;4999096;28;20433;-58
2021/12/10 02:26:37;;;;;;;0.87;0.80;;;19.60;38.20;;;;;;5001451;28;20450;-58
2021/12/10 02:29:05;;;;;;;1.00;0.90;;;19.60;38.10;;;;;;4997423;28;20454;-58
2021/12/10 02:31:31;;;;;;;0.80;0.80;;;19.60;38.10;;;;;;4998451;28;20485;-58
2021/12/10 02:33:57;;;;;;;0.83;0.83;;;19.60;38.10;;;;;;5000443;28;20984;-58
2021/12/10 02:36:26;;;;;;;0.80;0.80;;;19.60;38.10;;;;;;4996063;28;20713;-58
2021/12/10 02:38:53;;;;;;;1.13;1.03;;;19.60;38.10;;;;;;4999587;28;21035;-58
2021/12/10 02:41:25;;;;;;;0.80;0.80;;;19.60;38.10;;;;;;5002066;28;20864;-58
2021/12/10 02:43:51;;;;;;;0.90;0.90;;;19.70;38.20;;;;;;4996030;28;20441;-58
2021/12/10 02:46:17;;;;;;;0.93;0.90;;;19.60;38.00;;;;;;4996981;28;20519;-58
2021/12/10 02:48:43;;;;;;;1.00;0.90;;;19.60;38.00;;;;;;5000032;28;20295;-58
2021/12/10 02:51:09;;;;;;;0.97;0.87;;;19.60;38.10;;;;;;4996989;28;20228;-58
2021/12/10 02:53:40;;;;;;;0.90;0.80;;;19.60;38.00;;;;;;5001019;28;20439;-58
2021/12/10 02:56:05;;;;;;;0.93;0.83;;;19.60;38.00;;;;;;5000712;28;20515;-58
2021/12/10 02:58:31;;;;;;;1.00;0.90;;;19.60;38.00;;;;;;5000498;28;20457;-58
2021/12/10 03:01:03;;;;;;;0.90;0.80;;;19.60;38.10;;;;;;5000399;28;20223;-58
2021/12/10 03:03:29;;;;;;;1.00;0.87;;;19.70;38.30;;;;;;5003201;28;20442;-58
2021/12/10 03:05:55;;;;;;;0.83;0.70;;;19.60;38.00;;;;;;4998964;28;20434;-58
2021/12/10 03:08:21;;;;;;;1.00;0.90;;;19.60;38.00;;;;;;4996679;28;20459;-58
2021/12/10 03:10:47;;;;;;;1.00;0.90;;;19.60;38.00;;;;;;4997751;28;20420;-58
2021/12/10 03:13:12;;;;;;;0.80;0.80;;;19.60;38.00;;;;;;5000230;28;20243;-58
2021/12/10 03:15:39;;;;;;;1.27;0.80;;;19.70;38.10;;;;;;5000824;28;20220;-58
2021/12/10 03:18:11;;;;;;;0.80;0.80;;;19.60;38.00;;;;;;5007477;28;20654;-58
2021/12/10 03:20:37;;;;;;;1.10;1.00;;;19.70;38.10;;;;;;5003150;28;20455;-58
2021/12/10 03:23:04;;;;;;;0.90;0.80;;;19.60;38.00;;;;;;5001648;28;20537;-58
2021/12/10 03:25:31;;;;;;;1.03;0.93;;;19.60;37.90;;;;;;5003675;28;20446;-58
2021/12/10 03:27:57;;;;;;;0.90;0.80;;;19.60;37.90;;;;;;5001896;28;20458;-58
2021/12/10 03:30:27;;;;;;;0.80;0.80;;;19.60;38.00;;;;;;5006336;28;20467;-58
2021/12/10 03:32:53;;;;;;;0.90;0.80;;;19.60;38.00;;;;;;5001712;28;20423;-58
2021/12/10 03:35:29;;;;;;;1.60;0.83;;;19.60;37.90;;;;;;5003607;28;20437;-58
2021/12/10 03:37:57;;;;;;;0.80;0.73;;;19.60;37.90;;;;;;5001323;28;20449;-58
2021/12/10 03:40:23;;;;;;;0.87;0.70;;;19.60;37.90;;;;;;5006625;28;20479;-58
2021/12/10 03:42:50;;;;;;;1.20;0.93;;;19.60;37.90;;;;;;5003283;28;20432;-58
2021/12/10 03:45:16;;;;;;;1.43;1.33;;;19.60;37.90;;;;;;5001637;28;20243;-58
2021/12/10 03:47:42;;;;;;;1.00;0.90;;;19.60;38.00;;;;;;5002238;28;20951;-58
2021/12/10 03:50:10;;;;;;;1.00;0.90;;;19.60;37.90;;;;;;5004689;28;20441;-58
2021/12/10 03:52:36;;;;;;;1.30;0.87;;;19.60;37.90;;;;;;5005854;28;20232;-58
2021/12/10 03:55:04;;;;;;;0.80;0.70;;;19.60;37.90;;;;;;5003455;28;20457;-58
2021/12/10 03:57:30;;;;;;;1.00;0.90;;;19.60;37.90;;;;;;5002841;28;20235;-58
2021/12/10 03:59:56;;;;;;;0.97;0.80;;;19.60;37.90;;;;;;5000423;28;21002;-58
2021/12/10 04:02:21;;;;;;;0.80;0.80;;;19.60;37.80;;;;;;5004090;28;20235;-58
2021/12/10 04:04:49;;;;;;;1.80;0.93;;;19.60;37.90;;;;;;5003366;28;20226;-58
2021/12/10 04:07:23;;;;;;;0.90;0.80;;;19.60;37.90;;;;;;5005511;28;20236;-58
2021/12/10 04:09:50;;;;;;;0.80;0.80;;;19.60;37.90;;;;;;5002371;28;20480;-58
2021/12/10 04:12:17;;;;;;;0.80;0.80;;;19.60;37.90;;;;;;4999226;28;20431;-58
2021/12/10 04:14:45;;;;;;;0.77;0.77;;;19.60;37.90;;;;;;5004796;28;20780;-58
2021/12/10 04:17:10;;;;;;;1.40;0.80;;;19.60;37.90;;;;;;5001979;28;20442;-58
2021/12/10 04:19:39;;;;;;;0.80;0.80;;;19.60;37.90;;;;;;5000837;28;20461;-58
2021/12/10 04:22:07;;;;;;;0.70;0.70;;;19.60;37.80;;;;;;4999704;28;20239;-58
2021/12/10 04:24:36;;;;;;;0.80;0.70;;;19.60;37.80;;;;;;5000791;28;20452;-57
2021/12/10 04:27:04;;;;;;;1.00;0.90;;;19.60;37.80;;;;;;4999180;28;20457;-58
2021/12/10 04:29:31;;;;;;;1.00;0.90;;;19.60;37.80;;;;;;4999110;28;21048;-58
2021/12/10 04:31:58;;;;;;;0.97;0.90;;;19.60;37.90;;;;;;5003137;28;20480;-57
2021/12/10 04:34:24;;;;;;;0.83;0.80;;;19.70;37.90;;;;;;5000136;28;20424;-58
2021/12/10 04:36:54;;;;;;;0.80;0.80;;;19.60;37.80;;;;;;5002025;28;20441;-58
2021/12/10 04:39:19;;;;;;;1.00;0.80;;;19.70;37.90;;;;;;4998075;28;20552;-59
2021/12/10 04:41:45;;;;;;;1.10;1.00;;;19.60;37.80;;;;;;5005161;28;20552;-58
2021/12/10 04:44:11;;;;;;;0.87;0.80;;;19.70;37.80;;;;;;5002809;28;20228;-58
2021/12/10 04:46:37;;;;;;;1.20;0.70;;;19.60;37.90;;;;;;5001994;28;20577;-58
2021/12/10 04:49:07;;;;;;;0.80;0.70;;;19.70;37.90;;;;;;4994181;28;20221;-58
2021/12/10 04:51:40;;;;;;;1.67;0.80;;;19.60;37.80;;;;;;4999619;28;20228;-58
2021/12/10 04:54:08;;;;;;;1.00;0.90;;;19.60;37.80;;;;;;5000376;28;20457;-58
2021/12/10 04:56:34;;;;;;;2.03;0.80;;;19.60;37.70;;;;;;5000782;28;20433;-58
2021/12/10 04:59:03;;;;;;;0.80;0.80;;;19.70;37.80;;;;;;5002454;28;20432;-58
2021/12/10 05:01:29;;;;;;;0.80;0.70;;;19.60;37.70;;;;;;5001901;28;20431;-58
2021/12/10 05:03:55;;;;;;;1.00;0.90;;;19.60;37.70;;;;;;4997236;28;20456;-58
2021/12/10 05:06:21;;;;;;;1.20;0.80;;;19.70;37.80;;;;;;4998234;28;20490;-58
2021/12/10 05:08:47;;;;;;;0.77;0.67;;;19.70;37.80;;;;;;5002583;28;20600;-58
2021/12/10 05:11:14;;;;;;;0.77;0.70;;;19.70;37.70;;;;;;5003665;28;20212;-58
2021/12/10 05:13:43;;;;;;;1.20;0.80;;;19.70;37.70;;;;;;4997812;28;20432;-58
2021/12/10 05:16:10;;;;;;;3.23;1.13;;;19.70;37.70;;;;;;5004377;28;20419;-58
2021/12/10 05:18:39;;;;;;;1.00;0.83;;;19.70;37.70;;;;;;4999903;28;20542;-58
2021/12/10 05:21:06;;;;;;;0.70;0.70;;;19.70;37.70;;;;;;4997232;28;20503;-58
2021/12/10 05:23:32;;;;;;;1.10;0.90;;;19.70;37.70;;;;;;5000615;28;20424;-59
2021/12/10 05:25:57;;;;;;;0.80;0.80;;;19.70;37.70;;;;;;4999792;28;20812;-58
2021/12/10 05:28:23;;;;;;;1.00;0.90;;;19.70;37.70;;;;;;5000387;28;20262;-58
2021/12/10 05:30:54;;;;;;;0.90;0.90;;;19.70;37.70;;;;;;4995873;28;20685;-58
2021/12/10 05:33:19;;;;;;;0.90;0.77;;;19.70;37.70;;;;;;5003622;28;20227;-59
2021/12/10 05:35:47;;;;;;;1.10;0.80;;;19.70;37.60;;;;;;5001288;28;20413;-58
2021/12/10 05:38:15;;;;;;;1.10;1.00;;;19.70;37.70;;;;;;4998995;28;20300;-58
2021/12/10 05:40:40;;;;;;;1.10;1.00;;;19.70;37.60;;;;;;5000869;28;20454;-59
2021/12/10 05:43:06;;;;;;;1.53;1.00;;;19.70;37.60;;;;;;5004254;28;20455;-59
2021/12/10 05:45:32;;;;;;;1.47;0.90;;;19.70;37.60;;;;;;5002169;28;20259;-59
2021/12/10 05:47:58;;;;;;;0.83;0.70;;;19.70;37.60;;;;;;5002206;28;20231;-59
2021/12/10 05:50:26;;;;;;;0.90;0.90;;;19.80;37.60;;;;;;5001316;28;20231;-60
2021/12/10 05:52:53;;;;;;;0.87;0.80;;;19.80;37.50;;;;;;4998945;28;20622;-59
2021/12/10 05:55:19;;;;;;;1.03;0.80;;;19.80;37.40;;;;;;4996122;28;20782;-59
2021/12/10 05:57:45;;;;;;;1.00;0.93;;;19.90;37.50;;;;;;4997289;28;20922;-59
2021/12/10 06:00:16;;;;;;;0.70;0.70;;;19.90;37.50;;;;;;5002570;28;20308;-59
2021/12/10 06:02:42;;;;;;;0.70;0.70;;;19.90;37.30;;;;;;5000063;28;20260;-58
2021/12/10 06:05:08;;;;;;;0.90;0.80;;;19.90;37.40;;;;;;4998915;28;20937;-59
2021/12/10 06:07:34;;;;;;;0.90;0.80;;;19.90;37.30;;;;;;5001254;28;20232;-59
2021/12/10 06:10:00;;;;;;;0.80;0.80;;;19.90;37.40;;;;;;4997225;28;20450;-58
2021/12/10 06:12:26;;;;;;;0.90;0.80;;;19.90;37.40;;;;;;4999956;28;20450;-59
2021/12/10 06:14:52;;;;;;;0.73;0.70;;;19.90;37.40;;;;;;5000954;28;20232;-58
2021/12/10 06:17:18;;;;;;;1.53;0.80;;;19.90;37.50;;;;;;4998731;28;20674;-59
2021/12/10 06:19:43;;;;;;;1.40;1.30;;;19.90;37.50;;;;;;5004520;28;20262;-58
2021/12/10 06:22:10;;;;;;;0.70;0.70;;;19.90;37.50;;;;;;4997295;28;20361;-58
2021/12/10 06:24:35;;;;;;;0.80;0.80;;;19.90;37.50;;;;;;4997143;28;20653;-58
2021/12/10 06:27:01;;;;;;;1.73;0.90;;;19.90;37.50;;;;;;5000307;28;21007;-58
2021/12/10 06:29:27;;;;;;;1.00;0.80;;;19.90;37.50;;;;;;5002438;28;20655;-59
2021/12/10 06:31:54;;;;;;;0.90;0.80;;;19.90;37.50;;;;;;4998552;28;20460;-59
2021/12/10 06:34:22;;;;;;;1.00;0.90;;;19.90;37.50;;;;;;5000642;28;20446;-60
2021/12/10 06:36:50;;;;;;;0.70;0.70;;;19.90;37.50;;;;;;5003903;28;20445;-62
2021/12/10 06:39:20;;;;;;;1.03;0.90;;;19.90;37.50;;;;;;4998008;28;20448;-62
2021/12/10 06:41:49;;;;;;;0.80;0.80;;;19.90;37.50;;;;;;4989913;28;20444;-61
2021/12/10 06:44:15;;;;;;;0.97;0.87;;;19.90;37.50;;;;;;4998971;28;20853;-61
2021/12/10 06:46:40;;;;;;;0.80;0.80;;;19.90;37.50;;;;;;5001601;28;20944;-61
2021/12/10 06:49:06;;;;;;;1.13;0.90;;;19.90;37.50;;;;;;5003858;28;20234;-61
2021/12/10 06:51:31;;;;;;;1.30;1.00;;;19.90;37.40;;;;;;5006902;28;20227;-62
2021/12/10 06:53:57;;;;;;;1.00;0.90;;;19.90;37.30;;;;;;5009407;28;20230;-61
2021/12/10 06:56:23;;;;;;;1.30;1.10;;;19.90;37.40;;;;;;5005436;28;20227;-61
2021/12/10 06:58:50;;;;;;;1.83;1.00;;;19.90;37.40;;;;;;5007404;28;20220;-61
2021/12/10 07:01:23;;;;;;;1.30;1.20;;;19.90;37.30;;;;;;5006945;28;20480;-61
2021/12/10 07:03:51;;;;;;;1.10;0.80;;;19.90;37.20;;;;;;5008076;28;20489;-61
2021/12/10 07:06:17;;;;;;;6.17;1.20;;;19.90;37.10;;;;;;5007967;28;20477;-62
2021/12/10 07:08:44;;;;;;;1.33;1.03;;;19.90;37.10;;;;;;5005202;28;20458;-61
2021/12/10 07:11:14;;;;;;;0.97;0.90;;;19.90;37.20;;;;;;5006619;28;20472;-61
2021/12/10 07:13:42;;;;;;;1.77;1.20;;;19.90;37.20;;;;;;5004579;28;20446;-61
2021/12/10 07:16:09;;;;;;;2.03;1.50;;;19.90;37.20;;;;;;5005334;28;20445;-61
2021/12/10 07:18:35;;;;;;;1.67;1.00;;;19.90;37.20;;;;;;5005032;28;20446;-61
2021/12/10 07:21:01;;;;;;;1.20;1.00;;;19.90;37.30;;;;;;5005644;28;20467;-61
2021/12/10 07:23:27;;;;;;;2.40;1.27;;;19.90;37.30;;;;;;5005226;28;20240;-60
2021/12/10 07:25:53;;;;;;;1.30;1.00;;;19.90;37.20;;;;;;5006702;28;20579;-60
2021/12/10 07:28:18;;;;;;;1.20;1.10;;;19.90;38.10;;;;;;5008513;28;20540;-61
2021/12/10 07:30:46;;;;;;;1.00;0.90;;;19.90;37.30;;;;;;5005427;28;20303;-61
2021/12/10 07:33:11;;;;;;;1.00;0.80;;;19.90;37.30;;;;;;5006257;28;20220;-61
2021/12/10 07:35:37;;;;;;;1.40;1.17;;;19.90;37.30;;;;;;5004839;28;20828;-60
2021/12/10 07:38:04;;;;;;;1.80;1.30;;;19.90;37.30;;;;;;5007063;28;20721;-61
2021/12/10 07:40:32;;;;;;;2.20;1.20;;;19.90;37.20;;;;;;5003697;28;20529;-61
2021/12/10 07:42:58;;;;;;;1.10;1.00;;;19.90;37.30;;;;;;5005279;28;20459;-60
2021/12/10 07:45:25;;;;;;;1.50;1.20;;;19.90;37.30;;;;;;5002246;28;20971;-61
2021/12/10 07:47:53;;;;;;;1.80;1.10;;;19.90;37.30;;;;;;5003148;28;20524;-61
2021/12/10 07:50:28;;;;;;;1.93;1.00;;;19.90;37.20;;;;;;5004152;28;20442;-61
2021/12/10 07:52:56;;;;;;;1.33;0.97;;;19.90;37.30;;;;;;5007319;28;20454;-61
2021/12/10 07:55:24;;;;;;;3.03;1.20;;;19.90;37.30;;;;;;5003093;28;20812;-61
2021/12/10 07:57:51;;;;;;;1.20;1.10;;;20.00;37.40;;;;;;5003934;28;20588;-61
2021/12/10 08:00:18;;;;;;;1.40;1.00;;;19.90;37.30;;;;;;5004348;28;20931;-61
2021/12/10 08:02:44;;;;;;;0.97;0.87;;;19.90;37.30;;;;;;5006374;28;20446;-60
2021/12/10 08:05:11;;;;;;;3.10;1.20;;;19.90;37.20;;;;;;5003091;28;20442;-60
2021/12/10 08:07:37;;;;;;;1.20;1.10;;;19.90;38.00;;;;;;5003179;28;20240;-60
2021/12/10 08:10:05;;;;;;;3.70;1.47;;;19.90;37.20;;;;;;5003048;28;20424;-61
2021/12/10 08:12:30;;;;;;;1.67;0.90;;;20.00;37.30;;;;;;4999896;28;20578;-60
2021/12/10 08:14:56;;;;;;;1.10;1.00;;;20.00;37.30;;;;;;4999415;28;20960;-60
2021/12/10 08:17:24;;;;;;;1.40;1.07;;;20.00;37.20;;;;;;4997871;28;20219;-60
2021/12/10 08:19:50;;;;;;;1.10;0.90;;;20.00;37.20;;;;;;5001120;28;20220;-60
2021/12/10 08:22:16;;;;;;;1.53;1.20;;;20.00;37.20;;;;;;5002861;28;20455;-61
2021/12/10 08:24:42;;;;;;;1.33;1.10;;;20.00;37.20;;;;;;5005578;28;20500;-60
2021/12/10 08:27:10;;;;;;;2.00;1.10;;;20.00;37.10;;;;;;5000014;28;20442;-60
2021/12/10 08:29:35;;;;;;;1.40;1.30;;;20.00;37.20;;;;;;4998250;28;20444;-61
2021/12/10 08:32:02;;;;;;;1.10;1.00;;;20.00;37.20;;;;;;5004141;28;20473;-60
2021/12/10 08:34:29;;;;;;;2.40;1.43;;;20.00;37.20;;;;;;5001677;28;20224;-61
2021/12/10 08:36:54;;;;;;;2.07;1.00;;;20.00;37.20;;;;;;4999996;28;20449;-61
2021/12/10 08:39:20;;;;;;;1.23;1.10;;;20.00;37.20;;;;;;5000964;28;20863;-61
2021/12/10 08:41:46;;;;;;;1.20;0.83;;;20.00;37.20;;;;;;5005683;28;20693;-62
2021/12/10 08:44:12;;;;;;;1.70;1.37;;;20.00;37.20;;;;;;5002893;28;20228;-60
2021/12/10 08:46:40;;;;;;;2.17;1.10;;;20.00;37.20;;;;;;5000932;28;20224;-60
2021/12/10 08:49:08;;;;;;;1.70;1.60;;;20.00;37.20;;;;;;5003223;28;20401;-61
2021/12/10 08:51:56;;;;;;;1.10;1.00;;;20.00;37.20;;;;;;5003555;28;20935;-60
2021/12/10 08:54:26;;;;;;;1.33;1.20;;;20.00;37.20;;;;;;5000897;28;20461;-61
2021/12/10 08:56:52;;;;;;;1.20;1.00;;;20.00;37.20;;;;;;5001722;28;20474;-58
2021/12/10 08:59:21;;;;;;;3.90;1.17;;;20.00;37.20;;;;;;5000905;28;20421;-61
2021/12/10 09:01:50;;;;;;;1.30;1.10;;;20.00;37.20;;;;;;5003170;28;20465;-60
2021/12/10 09:04:16;;;;;;;1.57;1.10;;;20.00;37.30;;;;;;5002524;28;20467;-60
2021/12/10 09:06:45;;;;;;;1.00;0.80;;;20.00;37.30;;;;;;5003996;28;20954;-60
2021/12/10 09:09:13;;;;;;;1.20;1.00;;;20.00;37.30;;;;;;4999807;28;20870;-60
2021/12/10 09:11:43;;;;;;;1.50;1.00;;;20.00;37.30;;;;;;4998888;28;20461;-60
2021/12/10 09:14:09;;;;;;;1.10;1.00;;;20.00;37.30;;;;;;4999045;28;20443;-60
2021/12/10 09:16:36;;;;;;;1.13;1.03;;;20.00;37.30;;;;;;5002925;28;20449;-60
2021/12/10 09:19:05;;;;;;;1.07;0.90;;;20.00;37.30;;;;;;5003089;28;20453;-60
2021/12/10 09:21:32;;;;;;;1.20;1.10;;;20.00;37.40;;;;;;5001552;28;20473;-60
2021/12/10 09:24:04;;;;;;;1.43;1.10;;;20.00;37.40;;;;;;5000024;28;20868;-60
2021/12/10 09:26:33;;;;;;;0.90;0.73;;;20.00;37.40;;;;;;4998635;28;20553;-60
2021/12/10 09:29:00;;;;;;;0.90;0.80;;;20.00;37.40;;;;;;4991492;28;20804;-60
2021/12/10 09:31:26;;;;;;;3.53;1.20;;;20.00;37.50;;;;;;4995728;28;20445;-59
2021/12/10 09:33:55;;;;;;;1.50;1.10;;;20.00;37.40;;;;;;5000942;28;20781;-60
2021/12/10 09:36:22;;;;;;;1.00;0.80;;;20.00;37.50;;;;;;4997745;28;20224;-60
2021/12/10 09:38:48;;;;;;;1.07;0.90;;;20.00;37.50;;;;;;4996837;28;20453;-60
2021/12/10 09:41:14;;;;;;;2.40;1.00;;;20.00;37.50;;;;;;4999342;28;20465;-60
2021/12/10 09:43:41;;;;;;;1.20;1.00;;;20.00;37.50;;;;;;4997493;28;20224;-60
2021/12/10 09:46:07;;;;;;;0.80;0.70;;;20.00;37.50;;;;;;5001266;28;20469;-60
2021/12/10 09:48:33;;;;;;;4.30;1.10;;;20.00;37.50;;;;;;4996369;28;20532;-60
2021/12/10 09:51:10;;;;;;;0.80;0.80;;;20.00;37.50;;;;;;5004639;28;20996;-59
2021/12/10 09:53:38;;;;;;;1.73;0.87;;;20.00;37.50;;;;;;5000545;28;20415;-59
2021/12/10 09:56:05;;;;;;;1.53;0.87;;;20.00;37.50;;;;;;4998321;28;20454;-59
2021/12/10 09:58:31;;;;;;;1.00;0.83;;;20.00;37.50;;;;;;5003499;28;20449;-59
2021/12/10 10:01:05;;;;;;;1.13;1.03;;;20.00;37.50;;;;;;4999392;28;20458;-59
2021/12/10 10:03:36;;;;;;;1.13;1.00;;;20.00;37.50;;;;;;4999632;28;20462;-60
2021/12/10 10:06:02;;;;;;;0.97;0.87;;;19.90;37.50;;;;;;5004182;28;20500;-59
2021/12/10 10:08:29;;;;;;;1.27;0.80;;;20.00;37.60;;;;;;4998704;28;20593;-59
2021/12/10 10:11:02;;;;;;;0.90;0.80;;;20.00;37.50;;;;;;4998696;28;20445;-59
2021/12/10 10:13:32;;;;;;;1.27;0.90;;;20.00;37.60;;;;;;4998822;28;20413;-59
2021/12/10 10:15:59;;;;;;;1.00;0.90;;;20.00;37.60;;;;;;4996278;28;20436;-59
2021/12/10 10:18:27;;;;;;;0.87;0.87;;;19.90;37.50;;;;;;5001251;28;20933;-59
2021/12/10 10:21:11;;;;;;;1.53;1.10;;;19.90;37.50;;;;;;5000372;28;20473;-59
2021/12/10 10:23:41;;;;;;;1.30;1.10;;;20.00;37.60;;;;;;4995481;28;20498;-59
2021/12/10 10:26:10;;;;;;;1.17;1.07;;;20.00;37.60;;;;;;5000695;28;20450;-59
2021/12/10 10:28:36;;;;;;;1.10;1.00;;;20.00;37.60;;;;;;5002063;28;20449;-59
2021/12/10 10:31:17;;;;;;;0.83;0.80;;;19.90;37.50;;;;;;4995501;28;20493;-60
2021/12/10 10:33:44;;;;;;;1.00;0.90;;;20.00;37.60;;;;;;4999022;28;20454;-59
2021/12/10 10:36:19;;;;;;;1.77;1.33;;;20.00;37.60;;;;;;5001890;28;20458;-59
2021/12/10 10:38:47;;;;;;;1.27;0.90;;;20.00;37.60;;;;;;5001725;28;20445;-59
2021/12/10 10:41:16;;;;;;;1.00;0.87;;;19.90;37.50;;;;;;4998474;28;20469;-59
2021/12/10 10:43:42;;;;;;;0.90;0.80;;;19.90;37.50;;;;;;5003486;28;20512;-59
2021/12/10 10:46:08;;;;;;;2.33;0.90;;;19.90;37.50;;;;;;4998416;28;20442;-59
2021/12/10 10:48:34;;;;;;;1.10;1.00;;;19.90;37.50;;;;;;4998568;28;20450;-59
2021/12/10 10:51:13;;;;;;;1.67;1.10;;;19.90;37.60;;;;;;5001519;28;20279;-59
2021/12/10 10:53:47;;;;;;;1.53;1.00;;;19.90;37.50;;;;;;4997207;28;20220;-59
2021/12/10 10:56:18;;;;;;;1.00;0.90;;;19.90;38.30;;;;;;5006421;28;20436;-59
2021/12/10 10:58:55;;;;;;;1.10;1.00;;;19.90;37.60;;;;;;4998711;28;20834;-59
2021/12/10 11:01:32;;;;;;;1.00;0.70;;;19.90;37.50;;;;;;5002825;28;20449;-60
2021/12/10 11:04:09;;;;;;;1.00;0.90;;;19.90;37.50;;;;;;5000150;28;20944;-60
2021/12/10 11:06:41;;;;;;;1.07;0.80;;;19.90;37.50;;;;;;5001231;28;20469;-61
2021/12/10 11:09:21;;;;;;;0.87;0.80;;;19.90;37.50;;;;;;4998737;28;20485;-60
2021/12/10 11:12:06;;;;;;;1.07;0.90;;;19.90;37.60;;;;;;5002851;28;20493;-60
2021/12/10 11:14:36;;;;;;;1.30;0.90;;;19.90;37.60;;;;;;5002964;28;20521;-60
2021/12/10 11:17:26;;;;;;;1.50;0.90;;;19.90;37.60;;;;;;5001330;28;20465;-60
2021/12/10 11:20:18;;;;;;;1.43;0.90;;;19.90;37.60;;;;;;5003405;28;20442;-60
2021/12/10 11:22:50;;;;;;;0.90;0.90;;;19.90;37.60;;;;;;4992476;28;20484;-60
2021/12/10 11:25:20;;;;;;;1.10;0.80;;;19.90;37.60;;;;;;5000941;28;20453;-60
2021/12/10 11:27:47;;;;;;;1.33;0.90;;;19.90;37.70;;;;;;4997727;28;20951;-60
2021/12/10 11:30:21;;;;;;;1.40;0.90;;;19.90;37.60;;;;;;5000568;28;20446;-61
2021/12/10 11:33:00;;;;;;;1.07;0.97;;;19.90;37.70;;;;;;4998656;28;20453;-62
2021/12/10 11:35:47;;;;;;;2.30;1.10;;;19.90;37.70;;;;;;4998602;28;20502;-60
2021/12/10 11:38:24;;;;;;;1.00;0.90;;;19.90;37.70;;;;;;5004035;28;20504;-60
2021/12/10 11:41:03;;;;;;;1.40;0.90;;;19.90;37.70;;;;;;5001331;28;20450;-60
2021/12/10 11:49:33;;;;;;;0.90;0.87;;;19.80;37.60;;;;;;4999217;28;20493;-62
2021/12/10 11:52:04;;;;;;;0.87;0.87;;;19.80;37.70;;;;;;5000034;28;20456;-62
2021/12/10 11:54:38;;;;;;;1.03;0.90;;;19.80;37.70;;;;;;5003822;28;20460;-62
2021/12/10 11:57:12;;;;;;;1.17;0.80;;;19.80;37.60;;;;;;5004184;28;20461;-61
2021/12/10 11:59:57;;;;;;;1.20;1.10;;;19.80;37.70;;;;;;4999829;28;20467;-61
2021/12/10 12:02:28;;;;;;;3.73;1.10;;;19.80;37.70;;;;;;5000187;28;20469;-61
2021/12/10 12:04:57;;;;;;;1.60;0.90;;;19.80;37.60;;;;;;5002772;28;20448;-61
2021/12/10 12:07:26;;;;;;;1.30;1.00;;;19.80;37.70;;;;;;5000041;28;20967;-61
2021/12/10 12:09:55;;;;;;;1.40;1.00;;;19.80;37.70;;;;;;5001448;28;20446;-61
2021/12/10 12:12:26;;;;;;;3.83;1.03;;;19.80;37.70;;;;;;5004666;28;20985;-61
2021/12/10 12:15:02;;;;;;;1.33;0.80;;;19.80;37.70;;;;;;5000070;28;20449;-61
2021/12/10 12:17:31;;;;;;;1.00;0.90;;;19.80;37.70;;;;;;4999405;28;20458;-61
2021/12/10 12:19:57;;;;;;;1.00;1.00;;;19.80;37.70;;;;;;5004566;28;20795;-61
2021/12/10 12:25:28;;;;;;;1.17;1.07;;;19.80;37.80;;;;;;5004043;28;20807;-61
2021/12/10 12:28:05;;;;;;;1.10;0.80;;;19.80;37.80;;;;;;4999957;28;20800;-60
2021/12/10 12:30:31;;;;;;;1.73;0.90;;;19.80;37.80;;;;;;5002873;28;20464;-60
2021/12/10 12:32:58;;;;;;;0.97;0.70;;;19.80;37.80;;;;;;5005707;28;20435;-61
2021/12/10 12:35:33;;;;;;;1.00;0.90;;;19.80;37.80;;;;;;5003832;28;20231;-60
2021/12/10 12:38:17;;;;;;;1.27;0.90;;;19.80;37.80;;;;;;5000197;28;20450;-61
2021/12/10 12:40:46;;;;;;;1.27;0.97;;;19.80;37.80;;;;;;5003400;28;20434;-60
2021/12/10 12:43:11;;;;;;;1.40;0.80;;;19.80;37.90;;;;;;5001416;28;20469;-60
2021/12/10 12:45:39;;;;;;;0.80;0.80;;;19.80;37.80;;;;;;4999005;28;20808;-61
2021/12/10 12:48:10;;;;;;;1.00;0.90;;;19.80;37.80;;;;;;5003072;28;20220;-61
2021/12/10 12:50:39;;;;;;;1.30;1.13;;;19.80;37.80;;;;;;5000836;28;20445;-61
2021/12/10 12:53:18;;;;;;;0.93;0.70;;;19.80;37.90;;;;;;5006063;28;20607;-61
2021/12/10 12:55:56;;;;;;;1.50;0.90;;;19.80;37.80;;;;;;5004912;28;20794;-61
2021/12/10 12:58:38;;;;;;;1.10;1.00;;;19.80;37.80;;;;;;5003256;28;20853;-61
2021/12/10 13:01:19;;;;;;;1.20;1.00;;;19.80;37.80;;;;;;5001796;28;21006;-60
2021/12/10 13:03:45;;;;;;;1.20;1.00;;;19.80;37.80;;;;;;5003448;28;20454;-61
2021/12/10 13:06:27;;;;;;;1.00;0.80;;;19.80;37.80;;;;;;4999369;28;20460;-60
2021/12/10 13:09:36;;;;;;;1.20;1.10;;;19.80;37.80;;;;;;5002009;28;20281;-61
2021/12/10 13:12:09;;;;;;;1.37;0.90;;;19.80;37.80;;;;;;4993346;28;20915;-61
2021/12/10 13:14:52;;;;;;;1.60;1.10;;;19.80;37.80;;;;;;4987280;28;20812;-61